Главная страница
METAR-TAF:

METAR-TAF

Аэропорты :

Брно-Туржаны

Брно, Чехия

широта: 49-09N, долгота: 016-42E, высота над уровнем моря: 241 м

Текущие метеонаблюдения

Эта сводка был подготовлена 14 минут назад, в 21:30 UTC
Ветер 7 Узел от юго-восточный
Температура -2°C
Влажность 80%
Давление 1018 hPa
Видимость 10 км и более
Сплошная облачность на высоте 1800 фута

METAR: LKTB 162130Z 13007KT 9999 OVC018 M02/M05 Q1018 NOSIG

Время: 22:44 (21:44 UTC)

Прогноз

Эта сводка был подготовлена 4 часа и 44 минут назад, в 17:00 UTC
Прогноз действительный с 16-го 18 UTC до 18-го 00 UTC
Ветер 6 Узел от юго-восточный
Видимость 10 км и более
Рассеянная облачность на высоте 2300 фута
изменения
С 16-го 22 UTC до 17-го 00 UTC
Ветер 4 Узел от восточный
временами
С 17-го 00 UTC до 17-го 08 UTC
Видимость: 2500 м
Рассеянная облачность на высоте 1300 фута
дымка

TAF: LKTB 161700Z 1618/1800 13006KT 9999 BKN023 BECMG 1622/1700 09004KT TEMPO 1700/1708 2500 BR BKN013

Метеонаблюдения и прогнозы для более 4000 аэропортов (сводки METAR и TAF).

Имеющиеся станции представлены на карте желтыми и красными точками.

Чтобы увидеть название станции, наведите на нее мышь.

Затем щелкните, чтобы увидеть метеонаблюдения и метеопрогнозы.

Управление картой: чтобы увеличить масштаб, щелкните зеленые кнопки с черным крестиком; чтобы уменьшить масштаб, щелкните зеленую кнопку с тире; для просмотра соседних карт щелкайте зеленые стрелки.


METAR-TAF: